Aérodrome :
LOGIN :

S'inscrire | Disclaimer

   EN    FR    IT 

 










Légende :    VFR   VFR Marginal   IFR   IFR Intensif   IFR Très Intensif
Visi : 
Plafond : 
>= 8 km
>= 3000ft
5 à 8 km
1000 à 3000 ft
1500m à 5 km
500 à 1000 ft
800 à 1500m
200 à 500 ft
< 800m
< 200 ft
Symboles :   Orages  Brouillard  Fortes neiges  Fortes précipitations  Vent > 20 kt
SIGMETs :   Divers  Orages  Givrage  Turbulence  Onde Orograph.  Cendres Volcan.







- Altitude de l'aérodrome : 340 ft
- Code IATA : BZI


LTBF - Balikesir

DERNIER METAR :
  • 170750Z 03010KT 9999 SCT035 27/20 Q1010 NOSIG

METARs EXPIRÉS :
  • 170650Z 01008KT 9999 SCT035 26/22 Q1011 NOSIG
  • 170550Z 00000KT 9999 FEW035 SCT100 23/22 Q1011 RESHRA BECMG 01012KT

TAF TAF LTBF
Valide du 17 à 06h jusqu'au 17 à 15h UTC


170440Z 1706/1715 01012KT 9999 SCT035 SCT100
TEMPO 1712/1715 -TSRA SCT025CB SCT035
Pas de NOTAMs connus pour ce terrain.



MET'MAP, la Météo Aéronautique d'un coup d'oeil ! - Copyright ORBIFLY Décembre 2007 - Disclaimer

ORBIFLY MET'MAP TEAM :

Programmation & Développement : Alexandra Zaïnal
Conception & Développement : Baudouin d'Aumeries
Co-Programmation & Développement : Marc-Olivier Méhu
Soutien technique & logistique : Manuel Goepfert

Contact : metmap@orbifly.com




SOURCES & CREDITS :

   NOAA